createdAt,value
2019-05-07T00:04:01.962Z,97000.36
2019-05-07T00:06:52.600Z,96998.72
2019-05-07T00:09:23.085Z,96986.62
2019-05-07T00:11:53.185Z,96993.38
2019-05-07T00:14:23.077Z,96992.50
2019-05-07T00:16:53.499Z,96991.93
2019-05-07T00:22:17.261Z,96993.33
2019-05-07T00:24:45.823Z,96988.38
2019-05-07T00:27:14.308Z,96983.78
2019-05-07T00:29:43.126Z,96987.68
2019-05-07T00:32:12.224Z,96986.92
2019-05-07T00:35:22.546Z,96987.18
2019-05-07T00:38:10.279Z,96985.08
2019-05-07T00:40:58.084Z,96980.13
2019-05-07T00:46:22.581Z,96980.77
2019-05-07T00:48:52.790Z,96974.16
2019-05-07T00:54:12.305Z,96969.91
2019-05-07T00:56:42.903Z,96967.46
2019-05-07T00:59:13.125Z,96965.23
2019-05-07T01:01:43.321Z,96965.53
2019-05-07T01:04:13.047Z,96968.69
2019-05-07T01:06:42.441Z,96962.63
2019-05-07T01:09:32.385Z,96956.09
2019-05-07T01:12:03.103Z,96962.05
2019-05-07T01:14:32.629Z,96959.82
2019-05-07T01:17:02.619Z,96961.38
2019-05-07T01:19:32.961Z,96947.13
2019-05-07T01:22:03.240Z,96952.06
2019-05-07T01:24:32.299Z,96953.00
2019-05-07T01:27:02.402Z,96942.48
2019-05-07T01:29:32.833Z,96942.98
2019-05-07T01:34:55.685Z,96945.98
2019-05-07T01:37:24.288Z,96942.41
2019-05-07T01:39:53.143Z,96946.46
2019-05-07T01:42:22.208Z,96940.75
2019-05-07T01:44:52.909Z,96939.03
2019-05-07T01:47:23.688Z,96932.30
2019-05-07T01:49:55.061Z,96938.35
2019-05-07T01:52:23.238Z,96935.41
2019-05-07T01:54:52.334Z,96938.83
2019-05-07T01:57:23.142Z,96940.95
2019-05-07T01:59:52.903Z,96931.51
2019-05-07T02:05:17.892Z,96935.63
2019-05-07T02:13:14.818Z,96937.58
2019-05-07T02:15:57.270Z,96942.20
2019-05-07T02:18:13.875Z,96936.53
2019-05-07T02:20:42.690Z,96937.11
2019-05-07T02:23:12.985Z,96935.48
2019-05-07T02:25:42.105Z,96933.76
2019-05-07T02:28:12.878Z,96938.16
2019-05-07T02:30:44.543Z,96936.92
2019-05-07T02:33:13.797Z,96934.88
2019-05-07T02:35:43.873Z,96934.88
2019-05-07T02:41:07.961Z,96929.91
2019-05-07T02:43:36.519Z,96927.67
2019-05-07T02:46:44.974Z,96930.91
2019-05-07T02:49:33.022Z,96928.08
2019-05-07T02:52:23.011Z,96921.53
2019-05-07T02:57:43.209Z,96923.30
2019-05-07T03:00:53.219Z,96923.97
2019-05-07T03:03:24.320Z,96922.23
2019-05-07T03:05:53.687Z,96919.98
2019-05-07T03:08:26.584Z,96917.45
2019-05-07T03:10:52.871Z,96915.89
2019-05-07T03:13:23.725Z,96915.97
2019-05-07T03:16:13.108Z,96914.13
2019-05-07T03:18:43.857Z,96918.83
2019-05-07T03:24:07.732Z,96922.12
2019-05-07T03:26:55.496Z,96920.96
2019-05-07T03:32:27.359Z,96922.59
2019-05-07T03:35:16.180Z,96925.81
2019-05-07T03:37:44.177Z,96919.98
2019-05-07T03:43:07.252Z,96922.30
2019-05-07T03:46:14.512Z,96916.47
2019-05-07T03:51:33.031Z,96918.50
2019-05-07T03:54:03.175Z,96913.25
2019-05-07T03:56:33.141Z,96919.76
2019-05-07T03:59:03.607Z,96921.03
2019-05-07T04:01:53.839Z,96917.05
2019-05-07T04:04:23.012Z,96919.58
2019-05-07T04:06:53.771Z,96920.74
2019-05-07T04:09:24.196Z,96927.28
2019-05-07T04:11:53.147Z,96928.63
2019-05-07T04:14:23.167Z,96918.49
2019-05-07T04:16:53.581Z,96930.58
2019-05-07T04:19:23.546Z,96934.09
2019-05-07T04:21:53.545Z,96937.72
2019-05-07T04:27:36.618Z,96937.50
2019-05-07T04:30:45.094Z,96935.36
2019-05-07T04:38:38.735Z,96945.52
2019-05-07T04:41:07.348Z,96939.86
2019-05-07T04:43:36.019Z,96940.71
2019-05-07T04:46:04.739Z,96939.53
2019-05-07T04:48:34.308Z,96931.89
2019-05-07T04:54:13.272Z,96936.13
2019-05-07T04:56:43.583Z,96936.84
2019-05-07T04:59:13.405Z,96937.92
2019-05-07T05:04:26.874Z,96935.47
2019-05-07T05:06:47.753Z,96936.78
2019-05-07T05:09:16.326Z,96935.87
2019-05-07T05:11:45.017Z,96932.17
2019-05-07T05:14:13.945Z,96930.00
2019-05-07T05:16:42.725Z,96937.59
2019-05-07T05:19:12.571Z,96937.69
2019-05-07T05:22:01.986Z,96943.26
2019-05-07T05:27:06.805Z,96934.83
2019-05-07T05:32:24.688Z,96936.16
2019-05-07T05:34:53.373Z,96938.16
2019-05-07T05:37:22.670Z,96942.05
2019-05-07T05:40:05.573Z,96944.23
2019-05-07T05:42:42.869Z,96946.29
2019-05-07T05:48:22.231Z,96947.56
2019-05-07T05:51:11.763Z,96954.42
2019-05-07T05:56:48.290Z,96942.60
2019-05-07T05:59:48.242Z,96946.78
2019-05-07T06:05:22.092Z,96940.34
2019-05-07T06:08:09.798Z,96938.58
2019-05-07T06:10:57.593Z,96935.24
2019-05-07T06:13:45.278Z,96933.95
2019-05-07T06:26:47.946Z,96937.23
2019-05-07T06:29:19.813Z,96934.24
2019-05-07T06:34:22.162Z,96930.92
2019-05-07T06:36:52.660Z,96936.73
2019-05-07T06:42:15.546Z,96933.09
2019-05-07T06:47:33.379Z,96934.45
2019-05-07T06:50:03.148Z,96935.57
2019-05-07T06:52:32.283Z,96932.66
2019-05-07T06:55:03.220Z,96927.70
2019-05-07T07:01:02.294Z,96921.76
2019-05-07T07:09:14.416Z,96928.50
2019-05-07T07:14:18.676Z,96930.78
2019-05-07T07:16:47.310Z,96921.47
2019-05-07T07:19:15.982Z,96918.05
2019-05-07T07:21:44.630Z,96914.65
2019-05-07T07:24:13.320Z,96919.12
2019-05-07T07:32:16.564Z,96917.69
2019-05-07T07:35:04.368Z,96911.38
2019-05-07T07:40:46.721Z,96902.59
2019-05-07T07:43:15.405Z,96906.16
2019-05-07T07:45:43.977Z,96904.75
2019-05-07T07:48:13.296Z,96902.74
2019-05-07T07:50:43.120Z,96904.43
2019-05-07T07:53:13.005Z,96909.98
2019-05-07T07:58:52.307Z,96903.75
2019-05-07T08:01:41.994Z,96895.27
2019-05-07T08:09:24.013Z,96890.06
2019-05-07T08:11:52.712Z,96892.74
2019-05-07T08:14:22.015Z,96888.61
2019-05-07T08:16:52.756Z,96889.27
2019-05-07T08:19:22.736Z,96883.70
2019-05-07T08:25:01.750Z,96871.05
2019-05-07T08:27:29.877Z,96875.45
2019-05-07T08:29:58.573Z,96873.42
2019-05-07T08:32:46.342Z,96879.53
2019-05-07T08:35:34.149Z,96871.55
2019-05-07T08:38:02.903Z,96869.14
2019-05-07T08:40:32.528Z,96871.48
2019-05-07T08:43:03.249Z,96870.01
2019-05-07T08:45:52.390Z,96869.14
2019-05-07T08:51:11.899Z,96868.85
2019-05-07T08:53:42.288Z,96863.11
2019-05-07T08:56:12.461Z,96860.38
2019-05-07T08:58:42.375Z,96864.42
2019-05-07T09:01:11.853Z,96854.58
2019-05-07T09:04:02.473Z,96864.23
2019-05-07T09:06:51.901Z,96863.12
2019-05-07T09:09:22.188Z,96861.28
2019-05-07T09:11:51.918Z,96859.24
2019-05-07T09:14:23.557Z,96856.95
2019-05-07T09:16:52.752Z,96848.84
2019-05-07T09:19:21.992Z,96846.80
2019-05-07T09:22:12.502Z,96847.54
2019-05-07T09:24:42.174Z,96843.20
2019-05-07T09:27:29.817Z,96839.52
2019-05-07T09:30:17.641Z,96841.56
2019-05-07T09:33:05.431Z,96836.97
2019-05-07T09:35:53.134Z,96832.79
2019-05-07T09:38:22.313Z,96832.75
2019-05-07T09:40:52.514Z,96823.64
2019-05-07T09:43:22.566Z,96821.63
2019-05-07T09:45:52.333Z,96826.17
2019-05-07T09:48:22.154Z,96820.67
2019-05-07T09:50:53.023Z,96809.95
2019-05-07T09:53:22.822Z,96803.56
2019-05-07T09:55:52.689Z,96803.42
2019-05-07T09:58:35.295Z,96809.58
2019-05-07T10:03:27.133Z,96806.17
2019-05-07T10:05:55.810Z,96806.84
2019-05-07T10:08:24.450Z,96806.13
2019-05-07T10:10:53.333Z,96803.03
2019-05-07T10:13:42.033Z,96796.35
2019-05-07T10:16:12.795Z,96793.22
2019-05-07T10:19:22.224Z,96802.53
2019-05-07T10:21:52.976Z,96804.80
2019-05-07T10:25:02.906Z,96800.28
2019-05-07T10:27:32.724Z,96788.20
2019-05-07T10:30:42.807Z,96789.05
2019-05-07T10:33:12.383Z,96791.39
2019-05-07T10:35:43.422Z,96789.29
2019-05-07T10:38:12.584Z,96790.18
2019-05-07T10:40:42.827Z,96787.56
2019-05-07T10:43:11.481Z,96793.02
2019-05-07T10:45:59.294Z,96786.00
2019-05-07T10:48:47.089Z,96786.45
2019-05-07T10:51:15.845Z,96792.28
2019-05-07T10:54:24.263Z,96785.72
2019-05-07T10:56:52.947Z,96783.93
2019-05-07T10:59:22.550Z,96783.49
2019-05-07T11:04:43.533Z,96776.37
2019-05-07T11:07:11.688Z,96774.95
2019-05-07T11:09:42.013Z,96777.42
2019-05-07T11:12:12.749Z,96779.06
2019-05-07T11:14:41.204Z,96767.45
2019-05-07T11:19:59.112Z,96755.89
2019-05-07T11:22:27.667Z,96749.08
2019-05-07T11:24:56.267Z,96749.14
2019-05-07T11:27:24.938Z,96748.27
2019-05-07T11:29:53.619Z,96737.48
2019-05-07T11:32:22.262Z,96730.63
2019-05-07T11:34:52.871Z,96732.16
2019-05-07T11:37:22.599Z,96734.92
2019-05-07T11:39:52.349Z,96727.48
2019-05-07T11:44:57.524Z,96715.49
2019-05-07T11:50:34.832Z,96713.21
2019-05-07T11:55:52.568Z,96714.36
2019-05-07T11:58:21.989Z,96710.42
2019-05-07T12:03:27.100Z,96707.81
2019-05-07T12:05:55.667Z,96697.02
2019-05-07T12:08:37.460Z,96699.00
2019-05-07T12:10:54.648Z,96690.72
2019-05-07T12:13:23.203Z,96689.94
2019-05-07T12:15:52.340Z,96689.04
2019-05-07T12:18:22.826Z,96694.42
2019-05-07T12:21:20.178Z,96682.37
2019-05-07T12:23:42.311Z,96680.98
2019-05-07T12:26:12.580Z,96680.86
2019-05-07T12:28:41.875Z,96687.16
2019-05-07T12:34:25.357Z,96677.53
2019-05-07T12:36:54.042Z,96670.92
2019-05-07T12:39:22.702Z,96661.91
2019-05-07T12:41:52.454Z,96658.61
2019-05-07T12:44:22.290Z,96659.89
2019-05-07T12:46:52.557Z,96655.19
2019-05-07T12:49:22.461Z,96646.41
2019-05-07T12:52:10.226Z,96644.81
2019-05-07T12:54:58.033Z,96651.12
2019-05-07T12:57:26.689Z,96649.77
2019-05-07T13:02:54.070Z,96650.16
2019-05-07T13:05:22.792Z,96648.58
2019-05-07T13:10:27.041Z,96648.33
2019-05-07T13:12:55.737Z,96637.02
2019-05-07T13:15:27.797Z,96631.21
2019-05-07T13:17:54.724Z,96632.14
2019-05-07T13:23:31.913Z,96628.97
2019-05-07T13:26:42.770Z,96626.09
2019-05-07T13:29:12.826Z,96622.42
2019-05-07T13:31:42.772Z,96623.58
2019-05-07T13:34:52.005Z,96628.40
2019-05-07T13:48:45.667Z,96613.94
2019-05-07T13:51:34.503Z,96608.25
2019-05-07T13:56:43.035Z,96609.14
2019-05-07T13:59:53.038Z,96608.77
2019-05-07T14:02:42.197Z,96603.47
2019-05-07T14:05:14.100Z,96598.91
2019-05-07T14:10:17.114Z,96590.62
2019-05-07T14:12:45.892Z,96585.20
2019-05-07T14:15:54.322Z,96582.97
2019-05-07T14:18:25.695Z,96581.70
2019-05-07T14:20:53.360Z,96581.10
2019-05-07T14:23:21.976Z,96570.80
2019-05-07T14:25:52.620Z,96582.44
2019-05-07T14:28:23.542Z,96577.44
2019-05-07T14:31:33.503Z,96576.16
2019-05-07T14:34:22.440Z,96570.75
2019-05-07T14:37:10.129Z,96573.00
2019-05-07T14:39:38.906Z,96576.92
2019-05-07T14:42:26.672Z,96573.26
2019-05-07T14:47:52.117Z,96563.95
2019-05-07T14:50:22.428Z,96558.45
2019-05-07T14:52:52.365Z,96562.36
2019-05-07T14:55:22.277Z,96556.39
2019-05-07T14:57:52.404Z,96551.06
2019-05-07T15:00:22.568Z,96549.97
2019-05-07T15:02:52.631Z,96546.50
2019-05-07T15:08:22.178Z,96549.89
2019-05-07T15:10:52.509Z,96538.25
2019-05-07T15:13:21.796Z,96539.81
2019-05-07T15:19:05.916Z,96533.16
2019-05-07T15:21:34.610Z,96523.94
2019-05-07T15:24:43.067Z,96523.46
2019-05-07T15:27:12.212Z,96513.66
2019-05-07T15:29:43.937Z,96514.38
2019-05-07T15:32:12.715Z,96518.81
2019-05-07T15:34:42.117Z,96510.52
2019-05-07T15:37:12.335Z,96507.38
2019-05-07T15:39:42.275Z,96513.41
2019-05-07T15:42:10.954Z,96510.02
2019-05-07T15:44:39.619Z,96502.34
2019-05-07T15:49:57.520Z,96500.22
2019-05-07T15:52:57.625Z,96499.95
2019-05-07T15:58:24.056Z,96501.57
2019-05-07T16:00:52.789Z,96498.40
2019-05-07T16:06:36.908Z,96491.26
2019-05-07T16:14:37.341Z,96485.36
2019-05-07T16:19:55.300Z,96482.94
2019-05-07T16:25:13.295Z,96478.17
2019-05-07T16:28:02.111Z,96473.95
2019-05-07T16:30:32.340Z,96478.61
2019-05-07T16:33:02.306Z,96465.77
2019-05-07T16:35:32.286Z,96469.72
2019-05-07T16:38:00.948Z,96473.17
2019-05-07T16:40:48.904Z,96474.75
2019-05-07T16:43:17.549Z,96470.44
2019-05-07T16:45:46.237Z,96469.05
2019-05-07T16:48:14.852Z,96463.02
2019-05-07T16:51:02.805Z,96469.03
2019-05-07T16:53:35.042Z,96461.71
2019-05-07T16:56:02.949Z,96465.05
2019-05-07T17:01:22.262Z,96464.75
2019-05-07T17:06:42.603Z,96464.34
2019-05-07T17:14:42.476Z,96454.33
2019-05-07T17:17:12.068Z,96450.71
2019-05-07T17:19:42.536Z,96448.67
2019-05-07T17:22:12.109Z,96445.16
2019-05-07T17:27:52.122Z,96444.55
2019-05-07T17:30:20.620Z,96438.86
2019-05-07T17:32:49.281Z,96438.57
2019-05-07T17:35:17.982Z,96441.16
2019-05-07T17:37:46.651Z,96437.41
2019-05-07T17:40:15.289Z,96434.19
2019-05-07T17:42:43.859Z,96434.98
2019-05-07T17:45:52.524Z,96428.73
2019-05-07T17:48:23.269Z,96432.19
2019-05-07T17:51:12.435Z,96427.11
2019-05-07T17:53:46.375Z,96430.08
2019-05-07T17:56:12.752Z,96434.56
2019-05-07T17:58:42.691Z,96425.69
2019-05-07T18:01:12.265Z,96430.05
2019-05-07T18:06:32.063Z,96427.42
2019-05-07T18:09:02.704Z,96425.48
2019-05-07T18:11:32.471Z,96422.59
2019-05-07T18:14:02.573Z,96424.44
2019-05-07T18:16:52.265Z,96418.94
2019-05-07T18:19:22.232Z,96417.61
2019-05-07T18:21:52.464Z,96413.80
2019-05-07T18:24:22.352Z,96411.66
2019-05-07T18:26:52.582Z,96409.19
2019-05-07T18:29:22.711Z,96416.96
2019-05-07T18:32:12.027Z,96414.64
2019-05-07T18:35:02.208Z,96412.31
2019-05-07T18:37:32.463Z,96410.70
2019-05-07T18:40:02.496Z,96411.31
2019-05-07T18:42:32.729Z,96413.97
2019-05-07T18:45:02.107Z,96410.97
2019-05-07T18:47:33.112Z,96410.53
2019-05-07T18:50:02.893Z,96406.00
2019-05-07T18:52:32.517Z,96410.89
2019-05-07T18:55:02.718Z,96411.48
2019-05-07T18:57:32.786Z,96410.20
2019-05-07T19:00:05.024Z,96412.11
2019-05-07T19:02:32.245Z,96414.94
2019-05-07T19:05:02.789Z,96419.54
2019-05-07T19:07:32.439Z,96415.73
2019-05-07T19:10:02.685Z,96424.51
2019-05-07T19:15:52.706Z,96425.59
2019-05-07T19:18:22.776Z,96428.45
2019-05-07T19:20:52.941Z,96427.19
2019-05-07T19:23:22.637Z,96431.06
2019-05-07T19:25:52.235Z,96431.58
2019-05-07T19:28:22.589Z,96427.98
2019-05-07T19:30:52.970Z,96425.91
2019-05-07T19:33:26.715Z,96419.97
2019-05-07T19:35:53.348Z,96415.58
2019-05-07T19:38:22.080Z,96419.47
2019-05-07T19:40:52.849Z,96417.97
2019-05-07T19:43:21.159Z,96417.19
2019-05-07T19:45:52.220Z,96417.42
2019-05-07T19:48:20.403Z,96417.69
2019-05-07T19:50:49.103Z,96405.11
2019-05-07T19:53:20.393Z,96414.61
2019-05-07T19:56:07.246Z,96412.82
2019-05-07T19:58:36.041Z,96404.86
2019-05-07T20:01:44.540Z,96405.12
2019-05-07T20:04:20.054Z,96408.98
2019-05-07T20:06:48.704Z,96413.05
2019-05-07T20:11:53.064Z,96404.86
2019-05-07T20:14:22.272Z,96401.52
2019-05-07T20:16:53.144Z,96396.66
2019-05-07T20:19:23.072Z,96394.86
2019-05-07T20:21:52.413Z,96402.81
2019-05-07T20:24:22.233Z,96388.95
2019-05-07T20:26:52.677Z,96393.05
2019-05-07T20:29:22.940Z,96391.01
2019-05-07T20:31:53.215Z,96389.72
2019-05-07T20:34:22.190Z,96389.98
2019-05-07T20:36:52.284Z,96388.95
2019-05-07T20:39:23.135Z,96387.67
2019-05-07T20:41:52.634Z,96394.08
2019-05-07T20:44:21.647Z,96391.01
2019-05-07T20:46:50.280Z,96381.50
2019-05-07T20:49:18.904Z,96390.48
2019-05-07T20:51:47.597Z,96381.75
2019-05-07T20:54:35.376Z,96380.98
2019-05-07T20:59:53.184Z,96374.07
2019-05-07T21:02:22.688Z,96373.30
2019-05-07T21:04:52.156Z,96379.95
2019-05-07T21:07:22.160Z,96377.92
2019-05-07T21:09:52.969Z,96370.20
2019-05-07T21:12:22.553Z,96370.69
2019-05-07T21:14:52.468Z,96363.50
2019-05-07T21:17:22.793Z,96363.80
2019-05-07T21:19:52.549Z,96364.32
2019-05-07T21:22:22.650Z,96362.25
2019-05-07T21:24:53.182Z,96358.14
2019-05-07T21:27:22.222Z,96356.34
2019-05-07T21:29:52.663Z,96353.03
2019-05-07T21:32:23.075Z,96354.05
2019-05-07T21:34:52.707Z,96352.77
2019-05-07T21:37:22.901Z,96351.98
2019-05-07T21:39:53.194Z,96345.30
2019-05-07T21:42:22.974Z,96340.92
2019-05-07T21:44:52.933Z,96348.88
2019-05-07T21:47:22.185Z,96342.41
2019-05-07T21:49:54.874Z,96341.91
2019-05-07T21:57:54.532Z,96327.08
2019-05-07T22:00:42.143Z,96330.43
2019-05-07T22:03:34.699Z,96330.69
2019-05-07T22:06:02.486Z,96328.39
2019-05-07T22:08:32.536Z,96342.49
2019-05-07T22:11:02.554Z,96342.74
2019-05-07T22:13:32.904Z,96335.30
2019-05-07T22:16:02.739Z,96328.38
2019-05-07T22:18:33.970Z,96325.58
2019-05-07T22:21:03.592Z,96316.83
2019-05-07T22:23:32.536Z,96304.97
2019-05-07T22:26:18.568Z,96306.30
2019-05-07T22:36:43.251Z,96288.33
2019-05-07T22:39:13.392Z,96274.47
2019-05-07T22:41:42.559Z,96273.95
2019-05-07T22:44:12.308Z,96269.86
2019-05-07T22:46:42.152Z,96256.75
2019-05-07T22:49:12.298Z,96254.62
2019-05-07T22:51:41.688Z,96250.27
2019-05-07T22:54:11.821Z,96248.52
2019-05-07T22:56:59.851Z,96244.67
2019-05-07T22:59:28.511Z,96242.35
2019-05-07T23:01:57.131Z,96238.81
2019-05-07T23:04:25.717Z,96240.88
2019-05-07T23:06:54.324Z,96244.97
2019-05-07T23:09:22.962Z,96241.65
2019-05-07T23:11:52.596Z,96236.23
2019-05-07T23:14:22.642Z,96226.22
2019-05-07T23:16:55.320Z,96221.31
2019-05-07T23:19:22.623Z,96217.96
2019-05-07T23:21:52.122Z,96207.63
2019-05-07T23:24:24.500Z,96207.87
2019-05-07T23:26:53.696Z,96205.30
2019-05-07T23:29:22.621Z,96209.36
2019-05-07T23:31:55.083Z,96209.35
2019-05-07T23:34:22.930Z,96203.42
2019-05-07T23:36:53.439Z,96198.55
2019-05-07T23:42:16.350Z,96196.70
2019-05-07T23:44:44.952Z,96190.54
2019-05-07T23:47:13.507Z,96196.72
2019-05-07T23:49:43.014Z,96189.30
2019-05-07T23:52:12.988Z,96198.78
2019-05-07T23:54:42.966Z,96198.78
2019-05-07T23:57:14.900Z,96196.55
2019-05-07T23:59:42.258Z,96189.09
